Terminal Aerodrome Forecast
Issued by NWS

Home | Current Version | Previous Version | Graphics & Text | Print | Product List | Glossary On
Versions: 1 2 3 4 5 6 7 8 9 10 11 12 13 14 15 16 17 18
391
FTUS43 KGRB 252053 AAA
TAFCWA
TAF AMD
KCWA 252053Z 2521/2618 28014G21KT P6SM SCT027
     FM252300 28008KT P6SM SCT250
     FM260500 23007KT P6SM BKN050
     FM261000 21007KT P6SM OVC020
     FM261400 22008KT P6SM VCSH OVC020=

USA.gov is the U.S. government's official web portal to all federal, state and local government web resources and services.